createdAt,value
2022-09-26T00:01:43.884Z,100.00
2022-09-26T00:04:16.167Z,100.00
2022-09-26T00:06:43.579Z,100.00
2022-09-26T00:09:10.494Z,100.00
2022-09-26T00:11:37.540Z,100.00
2022-09-26T00:14:08.738Z,100.00
2022-09-26T00:16:35.473Z,100.00
2022-09-26T00:19:02.462Z,100.00
2022-09-26T00:21:30.405Z,100.00
2022-09-26T00:24:04.964Z,100.00
2022-09-26T00:26:34.552Z,100.00
2022-09-26T00:29:23.062Z,100.00
2022-09-26T00:31:49.792Z,100.00
2022-09-26T00:34:20.131Z,100.00
2022-09-26T00:36:47.032Z,100.00
2022-09-26T00:39:15.860Z,100.00
2022-09-26T00:41:43.490Z,100.00
2022-09-26T00:44:44.195Z,100.00
2022-09-26T00:47:28.524Z,100.00
2022-09-26T00:50:37.818Z,100.00
2022-09-26T00:53:10.269Z,100.00
2022-09-26T00:55:40.387Z,100.00
2022-09-26T00:58:20.396Z,100.00
2022-09-26T01:00:49.519Z,100.00
2022-09-26T01:03:18.975Z,100.00
2022-09-26T01:05:46.942Z,100.00
2022-09-26T01:08:17.543Z,100.00
2022-09-26T01:10:45.843Z,100.00
2022-09-26T01:13:13.262Z,100.00
2022-09-26T01:15:39.949Z,100.00
2022-09-26T01:18:09.064Z,100.00
2022-09-26T01:20:42.364Z,100.00
2022-09-26T01:23:38.027Z,100.00
2022-09-26T01:26:19.920Z,100.00
2022-09-26T01:29:05.484Z,100.00
2022-09-26T01:31:40.619Z,100.00
2022-09-26T01:34:41.172Z,100.00
2022-09-26T01:37:39.947Z,100.00
2022-09-26T01:40:25.765Z,100.00
2022-09-26T01:43:01.195Z,100.00
2022-09-26T01:45:40.670Z,100.00
2022-09-26T01:48:18.583Z,100.00
2022-09-26T01:50:53.416Z,100.00
2022-09-26T01:53:27.396Z,100.00
2022-09-26T01:56:07.884Z,100.00
2022-09-26T01:58:43.757Z,100.00
2022-09-26T02:01:14.582Z,100.00
2022-09-26T02:03:49.443Z,100.00
2022-09-26T02:06:22.572Z,100.00
2022-09-26T02:09:02.465Z,100.00
2022-09-26T02:11:29.147Z,100.00
2022-09-26T02:14:03.941Z,100.00
2022-09-26T02:16:38.863Z,100.00
2022-09-26T02:19:26.454Z,100.00
2022-09-26T02:21:55.600Z,100.00
2022-09-26T02:24:24.031Z,100.00
2022-09-26T02:26:52.209Z,100.00
2022-09-26T02:29:21.302Z,100.00
2022-09-26T02:32:03.200Z,100.00
2022-09-26T02:34:30.172Z,100.00
2022-09-26T02:37:05.084Z,100.00
2022-09-26T02:39:31.785Z,100.00
2022-09-26T02:42:25.020Z,100.00
2022-09-26T02:45:00.694Z,100.00
2022-09-26T02:47:43.878Z,100.00
2022-09-26T02:50:53.717Z,100.00
2022-09-26T02:53:57.722Z,100.00
2022-09-26T02:56:37.983Z,100.00
2022-09-26T02:59:29.748Z,100.00
2022-09-26T03:02:17.932Z,100.00
2022-09-26T03:04:58.244Z,100.00
2022-09-26T03:07:35.145Z,100.00
2022-09-26T03:10:05.526Z,100.00
2022-09-26T03:12:34.219Z,100.00
2022-09-26T03:15:04.699Z,100.00
2022-09-26T03:17:37.965Z,100.00
2022-09-26T03:20:12.185Z,100.00
2022-09-26T03:22:39.437Z,100.00
2022-09-26T03:25:09.555Z,100.00
2022-09-26T03:27:38.309Z,100.00
2022-09-26T03:30:06.514Z,100.00
2022-09-26T03:32:33.154Z,100.00
2022-09-26T03:34:59.904Z,100.00
2022-09-26T03:37:26.528Z,100.00
2022-09-26T03:39:54.518Z,100.00
2022-09-26T03:42:23.717Z,100.00
2022-09-26T03:44:51.585Z,100.00
2022-09-26T03:47:18.520Z,100.00
2022-09-26T03:49:45.333Z,100.00
2022-09-26T03:52:13.137Z,100.00
2022-09-26T03:54:39.845Z,100.00
2022-09-26T03:57:06.705Z,100.00
2022-09-26T03:59:33.280Z,100.00
2022-09-26T04:02:00.037Z,100.00
2022-09-26T04:04:26.907Z,100.00
2022-09-26T04:06:53.661Z,100.00
2022-09-26T04:09:21.145Z,100.00
2022-09-26T04:11:47.868Z,100.00
2022-09-26T04:14:14.505Z,100.00
2022-09-26T04:16:41.116Z,100.00
2022-09-26T04:19:07.839Z,100.00
2022-09-26T04:21:35.621Z,100.00
2022-09-26T04:24:02.708Z,100.00
2022-09-26T04:26:29.411Z,100.00
2022-09-26T04:29:02.402Z,100.00
2022-09-26T04:31:29.077Z,100.00
2022-09-26T04:33:58.071Z,100.00
2022-09-26T04:36:24.781Z,100.00
2022-09-26T04:38:51.462Z,100.00
2022-09-26T04:41:20.184Z,100.00
2022-09-26T04:43:56.611Z,100.00
2022-09-26T04:46:30.230Z,100.00
2022-09-26T04:49:00.326Z,100.00
2022-09-26T04:51:29.843Z,100.00
2022-09-26T04:53:58.739Z,100.00
2022-09-26T04:56:27.274Z,100.00
2022-09-26T04:59:00.032Z,100.00
2022-09-26T05:01:27.785Z,100.00
2022-09-26T05:03:56.523Z,100.00
2022-09-26T05:06:23.194Z,100.00
2022-09-26T05:08:51.054Z,100.00
2022-09-26T05:11:18.762Z,100.00
2022-09-26T05:13:48.056Z,100.00
2022-09-26T05:16:17.311Z,100.00
2022-09-26T05:18:44.671Z,100.00
2022-09-26T05:21:11.452Z,100.00
2022-09-26T05:23:57.250Z,100.00
2022-09-26T05:26:31.252Z,100.00
2022-09-26T05:29:07.056Z,100.00
2022-09-26T05:31:39.598Z,100.00
2022-09-26T05:34:08.011Z,100.00
2022-09-26T05:36:34.967Z,100.00
2022-09-26T05:39:02.256Z,100.00
2022-09-26T05:41:33.922Z,100.00
2022-09-26T05:44:00.753Z,100.00
2022-09-26T05:46:30.353Z,100.00
2022-09-26T05:48:57.658Z,100.00
2022-09-26T05:51:26.901Z,100.00
2022-09-26T05:53:54.117Z,100.00
2022-09-26T05:56:20.744Z,100.00
2022-09-26T05:58:50.620Z,100.00
2022-09-26T06:01:19.109Z,100.00
2022-09-26T06:03:47.088Z,100.00
2022-09-26T06:06:18.937Z,100.00
2022-09-26T06:08:46.326Z,100.00
2022-09-26T06:11:15.394Z,100.00
2022-09-26T06:13:46.555Z,100.00
2022-09-26T06:16:18.440Z,100.00
2022-09-26T06:18:48.045Z,100.00
2022-09-26T06:21:19.905Z,100.00
2022-09-26T06:23:47.809Z,100.00
2022-09-26T06:26:25.606Z,100.00
2022-09-26T06:28:58.143Z,100.00
2022-09-26T06:31:26.681Z,100.00
2022-09-26T06:33:56.259Z,100.00
2022-09-26T06:36:24.164Z,100.00
2022-09-26T06:38:52.168Z,100.00
2022-09-26T06:41:21.511Z,100.00
2022-09-26T06:43:49.131Z,100.00
2022-09-26T06:46:19.380Z,100.00
2022-09-26T06:48:46.761Z,100.00
2022-09-26T06:51:16.160Z,100.00
2022-09-26T06:53:45.923Z,100.00
2022-09-26T06:56:13.466Z,100.00
2022-09-26T06:58:40.185Z,100.00
2022-09-26T07:01:07.321Z,100.00
2022-09-26T07:03:34.092Z,100.00
2022-09-26T07:06:00.754Z,100.00
2022-09-26T07:08:57.455Z,100.00
2022-09-26T07:11:35.007Z,100.00
2022-09-26T07:14:03.340Z,100.00
2022-09-26T07:16:30.798Z,100.00
2022-09-26T07:18:58.020Z,100.00
2022-09-26T07:21:27.246Z,100.00
2022-09-26T07:23:57.477Z,100.00
2022-09-26T07:26:27.147Z,100.00
2022-09-26T07:28:56.946Z,100.00
2022-09-26T07:31:23.716Z,100.00
2022-09-26T07:33:50.514Z,100.00
2022-09-26T07:36:18.791Z,100.00
2022-09-26T07:38:48.816Z,100.00
2022-09-26T07:41:16.047Z,100.00
2022-09-26T07:46:50.007Z,100.00
2022-09-26T07:49:35.843Z,100.00
2022-09-26T07:52:02.470Z,100.00
2022-09-26T07:54:29.087Z,100.00
2022-09-26T07:56:55.696Z,100.00
2022-09-26T07:59:23.118Z,100.00
2022-09-26T08:01:49.833Z,100.00
2022-09-26T08:04:18.750Z,100.00
2022-09-26T08:06:45.876Z,100.00
2022-09-26T08:09:14.049Z,100.00
2022-09-26T08:11:42.057Z,100.00
2022-09-26T08:14:08.863Z,100.00
2022-09-26T08:16:39.626Z,100.00
2022-09-26T08:19:08.837Z,100.00
2022-09-26T08:21:35.801Z,100.00
2022-09-26T08:24:02.439Z,100.00
2022-09-26T08:26:29.131Z,100.00
2022-09-26T08:28:55.894Z,100.00
2022-09-26T08:31:22.793Z,100.00
2022-09-26T08:33:49.627Z,100.00
2022-09-26T08:36:16.973Z,100.00
2022-09-26T08:38:43.781Z,100.00
2022-09-26T08:41:54.797Z,100.00
2022-09-26T08:44:30.536Z,100.00
2022-09-26T08:47:04.662Z,100.00
2022-09-26T08:49:31.453Z,100.00
2022-09-26T08:52:03.938Z,100.00
2022-09-26T08:54:41.949Z,100.00
2022-09-26T08:57:34.785Z,100.00
2022-09-26T09:00:25.145Z,100.00
2022-09-26T09:03:11.484Z,100.00
2022-09-26T09:05:43.006Z,100.00
2022-09-26T09:08:17.390Z,100.00
2022-09-26T09:11:03.896Z,100.00
2022-09-26T09:13:46.209Z,100.00
2022-09-26T09:16:16.119Z,100.00
2022-09-26T09:19:05.255Z,100.00
2022-09-26T09:21:54.829Z,100.00
2022-09-26T09:24:52.445Z,100.00
2022-09-26T09:27:54.765Z,100.00
2022-09-26T09:30:28.245Z,100.00
2022-09-26T09:32:59.142Z,100.00
2022-09-26T09:35:56.097Z,100.00
2022-09-26T09:38:45.483Z,100.00
2022-09-26T09:41:36.403Z,100.00
2022-09-26T09:44:33.359Z,100.00
2022-09-26T09:47:00.801Z,100.00
2022-09-26T09:49:27.460Z,100.00
2022-09-26T09:52:24.255Z,100.00
2022-09-26T09:55:24.931Z,100.00
2022-09-26T09:58:17.128Z,100.00
2022-09-26T10:00:52.458Z,100.00
2022-09-26T10:03:29.911Z,100.00
2022-09-26T10:06:01.860Z,100.00
2022-09-26T10:08:35.618Z,100.00
2022-09-26T10:11:11.738Z,100.00
2022-09-26T10:13:43.061Z,100.00
2022-09-26T10:16:15.140Z,100.00
2022-09-26T10:19:03.929Z,100.00
2022-09-26T10:21:41.522Z,100.00
2022-09-26T10:24:24.497Z,100.00
2022-09-26T10:26:51.469Z,100.00
2022-09-26T10:29:40.621Z,100.00
2022-09-26T10:32:28.292Z,100.00
2022-09-26T10:35:24.891Z,100.00
2022-09-26T10:38:18.560Z,100.00
2022-09-26T10:40:54.902Z,100.00
2022-09-26T10:43:21.690Z,100.00
2022-09-26T10:46:13.702Z,100.00
2022-09-26T10:48:52.286Z,100.00
2022-09-26T10:51:23.384Z,100.00
2022-09-26T10:53:53.653Z,100.00
2022-09-26T10:56:28.994Z,100.00
2022-09-26T10:58:59.852Z,100.00
2022-09-26T11:01:31.376Z,100.00
2022-09-26T11:04:39.154Z,100.00
2022-09-26T11:07:19.250Z,100.00
2022-09-26T11:09:47.238Z,100.00
2022-09-26T11:12:55.054Z,100.00
2022-09-26T11:15:23.637Z,100.00
2022-09-26T11:17:53.360Z,100.00
2022-09-26T11:20:44.305Z,100.00
2022-09-26T11:23:39.167Z,100.00
2022-09-26T11:26:29.872Z,100.00
2022-09-26T11:29:20.142Z,100.00
2022-09-26T11:31:47.089Z,100.00
2022-09-26T11:34:17.892Z,100.00
2022-09-26T11:36:47.166Z,100.00
2022-09-26T11:39:44.668Z,100.00
2022-09-26T11:42:46.443Z,100.00
2022-09-26T11:45:34.868Z,100.00
2022-09-26T11:48:54.640Z,29.44
2022-09-26T11:51:34.546Z,26.07
2022-09-26T11:54:28.833Z,24.69
2022-09-26T11:57:09.717Z,23.34
2022-09-26T11:59:58.513Z,23.60
2022-09-26T12:02:34.187Z,22.26
2022-09-26T12:05:15.761Z,22.68
2022-09-26T12:07:46.997Z,21.73
2022-09-26T12:10:55.988Z,23.00
2022-09-26T12:13:49.835Z,22.64
2022-09-26T12:16:48.463Z,23.48
2022-09-26T12:19:40.203Z,25.27
2022-09-26T12:22:29.085Z,27.48
2022-09-26T12:25:19.287Z,28.49
2022-09-26T12:28:19.322Z,27.98
2022-09-26T12:30:52.155Z,27.68
2022-09-26T12:33:31.321Z,30.06
2022-09-26T12:36:27.193Z,28.93
2022-09-26T12:39:35.947Z,30.66
2022-09-26T12:42:30.505Z,30.49
2022-09-26T12:45:18.451Z,31.05
2022-09-26T12:48:06.862Z,31.83
2022-09-26T12:50:54.883Z,32.82
2022-09-26T12:53:36.632Z,34.35
2022-09-26T12:56:22.145Z,35.95
2022-09-26T12:59:00.185Z,34.26
2022-09-26T13:02:19.885Z,34.86
2022-09-26T13:05:04.995Z,33.91
2022-09-26T13:07:47.384Z,34.24
2022-09-26T13:11:02.313Z,33.66
2022-09-26T13:13:40.833Z,34.95
2022-09-26T13:16:46.786Z,34.71
2022-09-26T13:19:35.668Z,34.37
2022-09-26T13:22:39.656Z,35.48
2022-09-26T13:25:24.051Z,34.39
2022-09-26T13:28:18.582Z,34.37
2022-09-26T13:30:54.834Z,36.52
2022-09-26T13:33:31.739Z,37.19
2022-09-26T13:36:04.130Z,36.46
2022-09-26T13:38:51.834Z,36.36
2022-09-26T13:41:36.837Z,36.97
2022-09-26T13:44:07.600Z,36.54
2022-09-26T13:46:52.910Z,36.72
2022-09-26T13:49:29.118Z,35.60
2022-09-26T13:52:14.584Z,37.14
2022-09-26T13:54:57.816Z,36.70
2022-09-26T13:58:00.846Z,37.25
2022-09-26T14:00:40.555Z,37.59
2022-09-26T14:03:14.020Z,38.30
2022-09-26T14:05:51.194Z,37.69
2022-09-26T14:08:39.302Z,37.92
2022-09-26T14:11:12.198Z,38.11
2022-09-26T14:13:41.613Z,38.10
2022-09-26T14:16:33.679Z,38.85
2022-09-26T14:19:11.373Z,38.88
2022-09-26T14:22:03.607Z,38.57
2022-09-26T14:24:42.156Z,38.67
2022-09-26T14:27:17.920Z,38.76
2022-09-26T14:30:13.851Z,38.81
2022-09-26T14:33:02.237Z,39.31
2022-09-26T14:35:33.815Z,39.41
2022-09-26T14:38:04.842Z,39.78
2022-09-26T14:40:39.337Z,40.15
2022-09-26T14:43:17.582Z,40.69
2022-09-26T14:45:47.850Z,41.18
2022-09-26T14:48:26.912Z,40.86
2022-09-26T14:51:23.287Z,41.60
2022-09-26T14:53:59.534Z,42.26
2022-09-26T14:56:35.500Z,42.46
2022-09-26T14:59:17.389Z,42.53
2022-09-26T15:01:47.402Z,42.62
2022-09-26T15:04:29.941Z,42.95
2022-09-26T15:07:01.635Z,43.98
2022-09-26T15:09:47.553Z,44.64
2022-09-26T15:12:25.341Z,44.43
2022-09-26T15:15:09.188Z,44.31
2022-09-26T15:17:41.142Z,44.68
2022-09-26T15:20:16.466Z,45.04
2022-09-26T15:22:44.023Z,45.56
2022-09-26T15:25:20.863Z,45.40
2022-09-26T15:28:12.164Z,45.92
2022-09-26T15:30:40.917Z,46.28
2022-09-26T15:33:16.764Z,46.74
2022-09-26T15:35:54.780Z,47.00
2022-09-26T15:38:23.976Z,47.40
2022-09-26T15:41:04.815Z,47.94
2022-09-26T15:43:35.321Z,48.34
2022-09-26T15:46:07.322Z,48.66
2022-09-26T15:48:48.883Z,48.76
2022-09-26T15:51:29.006Z,48.52
2022-09-26T15:53:55.694Z,49.16
2022-09-26T15:56:29.325Z,49.08
2022-09-26T15:59:11.367Z,49.68
2022-09-26T16:01:50.160Z,48.79
2022-09-26T16:04:36.389Z,49.35
2022-09-26T16:07:09.318Z,49.70
2022-09-26T16:09:39.074Z,49.69
2022-09-26T16:12:15.410Z,50.43
2022-09-26T16:14:46.854Z,50.34
2022-09-26T16:17:35.961Z,50.38
2022-09-26T16:20:39.350Z,50.39
2022-09-26T16:23:06.864Z,50.40
2022-09-26T16:25:34.560Z,50.68
2022-09-26T16:28:04.636Z,50.92
2022-09-26T16:30:31.154Z,50.19
2022-09-26T16:33:07.547Z,50.04
2022-09-26T16:35:36.723Z,50.53
2022-09-26T16:38:18.469Z,50.42
2022-09-26T16:41:48.919Z,49.96
2022-09-26T16:44:41.833Z,51.21
2022-09-26T16:47:35.461Z,51.33
2022-09-26T16:50:34.028Z,51.68
2022-09-26T16:53:09.501Z,51.94
2022-09-26T16:55:39.793Z,52.34
2022-09-26T16:58:17.106Z,53.46
2022-09-26T17:01:02.436Z,53.39
2022-09-26T17:03:32.615Z,54.76
2022-09-26T17:06:02.536Z,54.19
2022-09-26T17:08:29.566Z,54.01
2022-09-26T17:11:02.893Z,54.45
2022-09-26T17:13:33.034Z,55.06
2022-09-26T17:16:05.159Z,56.09
2022-09-26T17:18:33.378Z,56.69
2022-09-26T17:21:00.730Z,57.54
2022-09-26T17:23:39.927Z,57.78
2022-09-26T17:26:30.982Z,58.98
2022-09-26T17:29:00.506Z,59.49
2022-09-26T17:31:27.415Z,59.98
2022-09-26T17:33:57.025Z,60.02
2022-09-26T17:36:27.997Z,60.30
2022-09-26T17:38:59.575Z,60.61
2022-09-26T17:41:28.113Z,60.77
2022-09-26T17:44:03.928Z,61.26
2022-09-26T17:46:33.397Z,61.48
2022-09-26T17:49:05.252Z,61.51
2022-09-26T17:51:32.870Z,62.06
2022-09-26T17:54:03.290Z,62.51
2022-09-26T17:56:34.186Z,62.96
2022-09-26T17:59:00.867Z,63.56
2022-09-26T18:01:35.710Z,63.76
2022-09-26T18:04:12.379Z,63.91
2022-09-26T18:06:39.037Z,65.02
2022-09-26T18:09:13.168Z,65.13
2022-09-26T18:11:44.245Z,65.55
2022-09-26T18:14:25.753Z,65.98
2022-09-26T18:16:52.776Z,66.49
2022-09-26T18:19:22.158Z,66.92
2022-09-26T18:21:55.619Z,67.57
2022-09-26T18:24:26.876Z,68.26
2022-09-26T18:26:57.223Z,68.68
2022-09-26T18:29:40.874Z,68.91
2022-09-26T18:32:21.938Z,69.63
2022-09-26T18:34:51.765Z,69.50
2022-09-26T18:37:18.901Z,70.35
2022-09-26T18:39:53.642Z,70.77
2022-09-26T18:42:24.479Z,71.56
2022-09-26T18:45:00.839Z,72.84
2022-09-26T18:47:29.022Z,72.79
2022-09-26T18:49:56.287Z,73.60
2022-09-26T18:52:25.077Z,74.41
2022-09-26T18:55:16.145Z,74.47
2022-09-26T18:58:01.994Z,74.78
2022-09-26T19:00:29.012Z,75.61
2022-09-26T19:02:57.390Z,75.98
2022-09-26T19:05:26.108Z,76.01
2022-09-26T19:07:53.530Z,76.46
2022-09-26T19:10:23.510Z,76.72
2022-09-26T19:12:51.742Z,76.91
2022-09-26T19:15:18.922Z,76.78
2022-09-26T19:17:45.705Z,77.56
2022-09-26T19:20:12.360Z,77.88
2022-09-26T19:22:39.924Z,77.73
2022-09-26T19:25:07.153Z,78.11
2022-09-26T19:27:52.954Z,78.38
2022-09-26T19:30:21.739Z,78.50
2022-09-26T19:32:51.848Z,78.93
2022-09-26T19:35:30.506Z,79.53
2022-09-26T19:37:58.807Z,79.36
2022-09-26T19:40:26.786Z,79.50
2022-09-26T19:42:57.369Z,79.36
2022-09-26T19:45:26.093Z,79.34
2022-09-26T19:47:55.172Z,79.25
2022-09-26T19:50:27.314Z,79.11
2022-09-26T19:53:03.303Z,79.17
2022-09-26T19:55:31.550Z,79.47
2022-09-26T19:58:13.314Z,79.63
2022-09-26T20:00:46.243Z,79.60
2022-09-26T20:03:19.050Z,80.28
2022-09-26T20:05:49.867Z,80.60
2022-09-26T20:08:24.217Z,80.81
2022-09-26T20:10:55.119Z,80.99
2022-09-26T20:13:22.025Z,81.08
2022-09-26T20:15:48.991Z,81.39
2022-09-26T20:18:22.075Z,80.53
2022-09-26T20:20:56.070Z,80.64
2022-09-26T20:23:27.126Z,80.03
2022-09-26T20:28:37.161Z,79.31
2022-09-26T20:31:06.606Z,79.12
2022-09-26T20:33:42.355Z,79.12
2022-09-26T20:36:13.066Z,79.11
2022-09-26T20:41:41.230Z,78.91
2022-09-26T20:44:31.795Z,78.93
2022-09-26T20:47:01.615Z,79.25
2022-09-26T20:49:40.861Z,79.63
2022-09-26T20:52:17.618Z,80.79
2022-09-26T20:54:44.413Z,81.61
2022-09-26T20:57:13.007Z,82.19
2022-09-26T20:59:42.015Z,82.31
2022-09-26T21:02:26.107Z,82.43
2022-09-26T21:04:53.632Z,83.03
2022-09-26T21:07:20.927Z,82.95
2022-09-26T21:09:49.624Z,83.47
2022-09-26T21:12:19.338Z,83.88
2022-09-26T21:14:49.302Z,84.00
2022-09-26T21:17:27.373Z,84.40
2022-09-26T21:19:54.938Z,84.65
2022-09-26T21:22:26.812Z,85.83
2022-09-26T21:24:54.160Z,86.69
2022-09-26T21:27:21.069Z,86.93
2022-09-26T21:29:50.977Z,87.88
2022-09-26T21:32:21.379Z,88.25
2022-09-26T21:35:07.022Z,88.53
2022-09-26T21:37:34.640Z,89.94
2022-09-26T21:40:01.973Z,90.92
2022-09-26T21:42:28.783Z,91.49
2022-09-26T21:45:03.877Z,92.56
2022-09-26T21:47:31.538Z,92.82
2022-09-26T21:49:59.149Z,93.32
2022-09-26T21:52:37.588Z,93.73
2022-09-26T21:55:10.581Z,94.58
2022-09-26T21:57:42.537Z,94.88
2022-09-26T22:00:16.268Z,95.62
2022-09-26T22:02:42.903Z,95.43
2022-09-26T22:05:11.803Z,95.84
2022-09-26T22:07:40.891Z,96.23
2022-09-26T22:10:07.902Z,96.75
2022-09-26T22:12:34.719Z,96.90
2022-09-26T22:15:01.504Z,96.97
2022-09-26T22:17:28.310Z,98.15
2022-09-26T22:19:54.957Z,98.32
2022-09-26T22:22:21.795Z,98.68
2022-09-26T22:24:53.642Z,98.88
2022-09-26T22:27:21.219Z,98.74
2022-09-26T22:29:50.039Z,98.63
2022-09-26T22:32:18.157Z,100.00
2022-09-26T22:34:44.776Z,100.00
2022-09-26T22:37:11.792Z,100.00
2022-09-26T22:39:38.740Z,100.00
2022-09-26T22:42:06.843Z,100.00
2022-09-26T22:44:34.375Z,100.00
2022-09-26T22:47:00.996Z,100.00
2022-09-26T22:49:27.746Z,100.00
2022-09-26T22:56:05.102Z,100.00
2022-09-26T22:58:36.831Z,100.00
2022-09-26T23:01:06.346Z,100.00
2022-09-26T23:03:34.525Z,100.00
2022-09-26T23:06:05.140Z,100.00
2022-09-26T23:08:33.057Z,100.00
2022-09-26T23:11:01.270Z,100.00
2022-09-26T23:13:30.451Z,100.00
2022-09-26T23:16:06.517Z,100.00
2022-09-26T23:19:28.966Z,100.00
2022-09-26T23:21:55.694Z,100.00
2022-09-26T23:24:22.309Z,100.00
2022-09-26T23:26:49.005Z,100.00
2022-09-26T23:29:15.939Z,100.00
2022-09-26T23:31:49.816Z,100.00
2022-09-26T23:34:16.874Z,100.00
2022-09-26T23:36:44.592Z,100.00
2022-09-26T23:39:14.069Z,100.00
2022-09-26T23:41:40.885Z,100.00
2022-09-26T23:44:09.675Z,100.00
2022-09-26T23:46:36.792Z,100.00
2022-09-26T23:49:03.729Z,100.00
2022-09-26T23:51:30.448Z,100.00
2022-09-26T23:53:57.174Z,100.00
2022-09-26T23:56:23.978Z,100.00
2022-09-26T23:58:50.664Z,100.00
